createdAt,value
2023-01-11T00:00:41.400Z,92.10
2023-01-11T00:03:08.617Z,92.00
2023-01-11T00:05:59.151Z,92.00
2023-01-11T00:12:14.358Z,91.90
2023-01-11T00:14:57.905Z,91.80
2023-01-11T00:17:32.659Z,91.80
2023-01-11T00:19:59.952Z,91.80
2023-01-11T00:22:30.892Z,91.70
2023-01-11T00:25:09.849Z,91.70
2023-01-11T00:27:44.197Z,91.60
2023-01-11T00:30:17.524Z,91.60
2023-01-11T00:32:48.606Z,91.50
2023-01-11T00:35:18.760Z,91.50
2023-01-11T00:37:45.716Z,91.50
2023-01-11T00:40:15.398Z,91.40
2023-01-11T00:43:01.359Z,91.40
2023-01-11T00:45:51.024Z,91.30
2023-01-11T00:48:24.585Z,91.20
2023-01-11T00:51:02.528Z,91.20
2023-01-11T00:53:32.248Z,91.10
2023-01-11T00:55:59.370Z,91.10
2023-01-11T00:58:26.929Z,91.10
2023-01-11T01:00:56.464Z,91.00
2023-01-11T01:03:26.144Z,91.00
2023-01-11T01:05:58.617Z,91.00
2023-01-11T01:08:25.669Z,91.00
2023-01-11T01:10:55.906Z,91.00
2023-01-11T01:13:44.211Z,91.00
2023-01-11T01:16:17.358Z,91.00
2023-01-11T01:18:44.786Z,91.00
2023-01-11T01:21:11.967Z,91.00
2023-01-11T01:23:39.287Z,91.00
2023-01-11T01:26:09.249Z,91.00
2023-01-11T01:28:41.688Z,91.00
2023-01-11T01:31:11.336Z,91.00
2023-01-11T01:33:38.372Z,90.90
2023-01-11T01:36:08.140Z,90.90
2023-01-11T01:38:35.404Z,90.90
2023-01-11T01:41:02.773Z,90.90
2023-01-11T01:43:55.649Z,90.90
2023-01-11T01:46:25.646Z,90.90
2023-01-11T01:49:11.326Z,90.90
2023-01-11T01:51:49.985Z,90.90
2023-01-11T01:54:27.461Z,90.90
2023-01-11T01:56:59.428Z,90.90
2023-01-11T01:59:37.620Z,90.90
2023-01-11T02:02:10.405Z,90.90
2023-01-11T02:04:42.124Z,90.90
2023-01-11T02:07:19.976Z,90.90
2023-01-11T02:10:12.362Z,90.90
2023-01-11T02:12:48.653Z,90.90
2023-01-11T02:15:15.667Z,90.90
2023-01-11T02:17:43.032Z,90.90
2023-01-11T02:20:44.483Z,90.90
2023-01-11T02:23:47.533Z,90.90
2023-01-11T02:26:14.663Z,90.90
2023-01-11T02:29:00.682Z,90.90
2023-01-11T02:31:46.428Z,90.80
2023-01-11T02:34:38.293Z,90.80
2023-01-11T02:37:17.585Z,90.80
2023-01-11T02:39:58.159Z,90.80
2023-01-11T02:43:13.838Z,90.80
2023-01-11T02:45:57.749Z,90.90
2023-01-11T02:48:43.456Z,90.80
2023-01-11T02:51:20.036Z,90.80
2023-01-11T02:54:03.658Z,90.90
2023-01-11T02:56:38.847Z,90.80
2023-01-11T02:59:09.094Z,90.80
2023-01-11T03:01:45.452Z,90.80
2023-01-11T03:04:28.739Z,90.90
2023-01-11T03:07:16.126Z,90.90
2023-01-11T03:10:28.176Z,90.90
2023-01-11T03:13:29.885Z,90.80
2023-01-11T03:16:24.378Z,90.80
2023-01-11T03:19:16.807Z,90.80
2023-01-11T03:22:02.546Z,90.80
2023-01-11T03:24:34.274Z,90.80
2023-01-11T03:27:18.120Z,90.80
2023-01-11T03:30:23.354Z,90.70
2023-01-11T03:33:14.577Z,90.70
2023-01-11T03:35:47.801Z,90.80
2023-01-11T03:38:18.803Z,90.70
2023-01-11T03:40:48.526Z,90.70
2023-01-11T03:43:18.957Z,90.70
2023-01-11T03:46:16.139Z,90.70
2023-01-11T03:49:01.384Z,90.70
2023-01-11T03:51:36.418Z,90.70
2023-01-11T03:54:08.967Z,90.70
2023-01-11T03:57:04.134Z,90.70
2023-01-11T03:59:31.445Z,90.70
2023-01-11T04:02:00.738Z,90.80
2023-01-11T04:04:29.496Z,90.80
2023-01-11T04:07:00.434Z,90.80
2023-01-11T04:09:38.273Z,90.80
2023-01-11T04:12:08.621Z,90.80
2023-01-11T04:14:35.780Z,90.80
2023-01-11T04:17:02.935Z,90.80
2023-01-11T04:19:34.087Z,90.80
2023-01-11T04:22:01.368Z,90.80
2023-01-11T04:24:33.094Z,90.80
2023-01-11T04:27:02.537Z,90.90
2023-01-11T04:29:29.600Z,90.90
2023-01-11T04:31:56.772Z,90.90
2023-01-11T04:34:23.828Z,90.90
2023-01-11T04:36:53.085Z,90.90
2023-01-11T04:39:23.054Z,90.90
2023-01-11T04:42:11.877Z,90.90
2023-01-11T04:44:39.191Z,90.90
2023-01-11T04:47:08.184Z,90.90
2023-01-11T04:49:35.258Z,90.90
2023-01-11T04:52:03.787Z,90.90
2023-01-11T04:54:33.774Z,90.90
2023-01-11T04:57:01.143Z,90.90
2023-01-11T04:59:30.958Z,90.90
2023-01-11T05:02:01.020Z,90.90
2023-01-11T05:04:31.198Z,90.90
2023-01-11T05:06:58.563Z,90.90
2023-01-11T05:09:27.274Z,90.90
2023-01-11T05:11:57.440Z,91.00
2023-01-11T05:14:30.080Z,91.00
2023-01-11T05:16:57.344Z,90.90
2023-01-11T05:19:24.756Z,90.90
2023-01-11T05:21:54.551Z,90.90
2023-01-11T05:24:24.375Z,91.00
2023-01-11T05:26:54.532Z,90.90
2023-01-11T05:29:30.800Z,91.00
2023-01-11T05:32:00.873Z,91.00
2023-01-11T05:34:27.874Z,90.90
2023-01-11T05:37:02.394Z,90.90
2023-01-11T05:39:32.094Z,90.90
2023-01-11T05:41:59.147Z,90.90
2023-01-11T05:44:46.087Z,90.90
2023-01-11T05:47:13.251Z,91.00
2023-01-11T05:49:43.330Z,91.00
2023-01-11T05:52:12.940Z,90.90
2023-01-11T05:54:42.951Z,90.90
2023-01-11T05:57:13.073Z,90.90
2023-01-11T05:59:48.710Z,90.90
2023-01-11T06:02:16.182Z,90.90
2023-01-11T06:04:46.059Z,90.90
2023-01-11T06:07:13.035Z,90.90
2023-01-11T06:09:47.245Z,90.80
2023-01-11T06:12:14.451Z,90.80
2023-01-11T06:14:44.235Z,90.80
2023-01-11T06:17:16.787Z,90.80
2023-01-11T06:19:43.947Z,90.80
2023-01-11T06:22:11.341Z,90.80
2023-01-11T06:24:40.948Z,90.80
2023-01-11T06:27:08.151Z,90.80
2023-01-11T06:29:35.107Z,90.80
2023-01-11T06:32:06.065Z,90.80
2023-01-11T06:34:35.323Z,90.80
2023-01-11T06:37:02.283Z,90.70
2023-01-11T06:39:31.977Z,90.70
2023-01-11T06:41:58.982Z,90.70
2023-01-11T06:44:26.906Z,90.70
2023-01-11T06:47:05.553Z,90.70
2023-01-11T06:49:34.980Z,90.70
2023-01-11T06:52:05.798Z,90.70
2023-01-11T06:54:37.839Z,90.60
2023-01-11T06:57:04.863Z,90.70
2023-01-11T06:59:35.132Z,90.60
2023-01-11T07:02:05.110Z,90.60
2023-01-11T07:04:32.433Z,90.60
2023-01-11T07:06:59.414Z,90.60
2023-01-11T07:09:26.545Z,90.60
2023-01-11T07:11:56.665Z,90.60
2023-01-11T07:14:27.611Z,90.60
2023-01-11T07:16:54.607Z,90.60
2023-01-11T07:19:24.330Z,90.60
2023-01-11T07:21:51.530Z,90.60
2023-01-11T07:24:19.216Z,90.50
2023-01-11T07:26:46.482Z,90.50
2023-01-11T07:29:15.241Z,90.60
2023-01-11T07:31:42.586Z,90.60
2023-01-11T07:34:13.826Z,90.60
2023-01-11T07:36:40.879Z,90.60
2023-01-11T07:39:11.030Z,90.60
2023-01-11T07:41:57.996Z,90.60
2023-01-11T07:44:28.011Z,90.60
2023-01-11T07:46:57.558Z,90.50
2023-01-11T07:49:24.563Z,90.50
2023-01-11T07:51:55.727Z,90.50
2023-01-11T07:54:24.856Z,90.50
2023-01-11T07:56:52.615Z,90.50
2023-01-11T07:59:20.790Z,90.50
2023-01-11T08:01:47.845Z,90.50
2023-01-11T08:04:17.766Z,90.50
2023-01-11T08:06:47.370Z,90.50
2023-01-11T08:09:25.746Z,90.40
2023-01-11T08:12:14.029Z,90.40
2023-01-11T08:15:44.280Z,90.40
2023-01-11T08:18:22.614Z,90.30
2023-01-11T08:20:52.874Z,90.30
2023-01-11T08:23:23.016Z,90.20
2023-01-11T08:25:50.277Z,90.20
2023-01-11T08:28:17.365Z,90.20
2023-01-11T08:30:46.472Z,90.10
2023-01-11T08:33:15.985Z,90.10
2023-01-11T08:35:43.135Z,90.10
2023-01-11T08:38:13.345Z,90.10
2023-01-11T08:41:52.770Z,90.10
2023-01-11T08:45:07.559Z,90.00
2023-01-11T08:55:31.369Z,89.90
2023-01-11T09:12:55.433Z,89.70
2023-01-11T09:16:04.437Z,89.60
2023-01-11T09:18:47.009Z,89.60
2023-01-11T09:21:26.051Z,89.60
2023-01-11T09:42:12.997Z,89.40
2023-01-11T10:01:08.149Z,88.90
2023-01-11T10:07:38.187Z,88.50
2023-01-11T10:18:26.736Z,88.40
2023-01-11T11:21:13.252Z,86.50
2023-01-11T11:24:50.283Z,86.40
2023-01-11T11:39:21.542Z,85.90
2023-01-11T11:46:28.493Z,85.60
2023-01-11T11:49:55.339Z,85.50
2023-01-11T12:00:35.274Z,85.10
2023-01-11T12:15:21.379Z,84.60
2023-01-11T12:19:07.804Z,84.30
2023-01-11T12:21:46.001Z,84.20
2023-01-11T12:46:46.257Z,83.40
2023-01-11T12:50:13.407Z,83.20
2023-01-11T12:57:12.802Z,83.00
2023-01-11T13:00:43.923Z,83.00
2023-01-11T13:03:41.368Z,82.80
2023-01-11T13:06:48.022Z,82.60
2023-01-11T13:09:17.939Z,82.50
2023-01-11T13:12:22.606Z,82.50
2023-01-11T13:15:11.541Z,82.40
2023-01-11T13:18:06.511Z,82.40
2023-01-11T13:21:35.194Z,82.20
2023-01-11T13:24:03.985Z,82.20
2023-01-11T13:26:35.448Z,82.30
2023-01-11T13:29:22.874Z,82.20
2023-01-11T13:32:20.547Z,82.10
2023-01-11T13:34:54.975Z,82.00
2023-01-11T13:37:33.362Z,81.80
2023-01-11T13:40:26.867Z,81.80
2023-01-11T13:43:02.180Z,81.60
2023-01-11T13:46:04.182Z,81.60
2023-01-11T13:48:36.320Z,81.50
2023-01-11T13:51:11.555Z,81.50
2023-01-11T13:53:53.173Z,81.40
2023-01-11T13:56:32.573Z,81.30
2023-01-11T13:59:57.181Z,81.10
2023-01-11T14:06:50.926Z,82.00
2023-01-11T14:09:37.169Z,82.60
2023-01-11T14:12:41.970Z,83.30
2023-01-11T14:15:22.770Z,83.70
2023-01-11T14:18:14.419Z,84.00
2023-01-11T14:21:13.687Z,84.10
2023-01-11T14:24:23.463Z,84.20
2023-01-11T14:52:16.335Z,84.60
2023-01-11T15:07:10.319Z,84.80
2023-01-11T15:15:02.950Z,84.70
2023-01-11T15:17:57.298Z,84.70
2023-01-11T15:20:24.348Z,84.70
2023-01-11T15:23:13.896Z,84.70
2023-01-11T15:25:43.277Z,84.80
2023-01-11T15:28:53.259Z,84.80
2023-01-11T15:31:59.565Z,84.90
2023-01-11T15:34:32.668Z,85.00
2023-01-11T15:37:55.680Z,85.00
2023-01-11T15:43:53.101Z,85.40
2023-01-11T15:46:54.246Z,85.50
2023-01-11T15:49:58.900Z,85.60
2023-01-11T15:53:20.171Z,85.90
2023-01-11T15:56:29.042Z,86.00
2023-01-11T15:59:12.670Z,86.10
2023-01-11T16:02:27.809Z,86.20
2023-01-11T16:06:01.673Z,86.60
2023-01-11T16:08:26.484Z,86.60
2023-01-11T16:11:27.628Z,86.60
2023-01-11T16:14:59.202Z,86.90
2023-01-11T16:21:46.498Z,87.20
2023-01-11T16:28:16.194Z,87.50
2023-01-11T16:30:43.577Z,87.60
2023-01-11T16:45:03.806Z,88.30
2023-01-11T16:50:35.880Z,88.40
2023-01-11T16:53:06.454Z,88.50
2023-01-11T16:55:40.607Z,88.60
2023-01-11T16:58:27.158Z,88.80
2023-01-11T17:01:02.006Z,88.80
2023-01-11T17:03:47.111Z,89.00
2023-01-11T17:06:15.491Z,89.20
2023-01-11T17:08:52.734Z,89.30
2023-01-11T17:11:41.793Z,89.40
2023-01-11T17:15:16.775Z,90.00
2023-01-11T17:17:58.086Z,89.60
2023-01-11T17:21:09.394Z,89.60
2023-01-11T17:34:59.965Z,89.60
2023-01-11T17:37:34.380Z,89.60
2023-01-11T17:41:07.671Z,89.60
2023-01-11T17:48:22.595Z,89.70
2023-01-11T17:51:45.284Z,89.60
2023-01-11T17:54:41.113Z,89.60
2023-01-11T18:01:13.964Z,89.60
2023-01-11T18:03:48.301Z,89.40
2023-01-11T18:06:30.638Z,89.40
2023-01-11T18:08:59.459Z,89.30
2023-01-11T18:11:37.284Z,89.30
2023-01-11T18:14:25.759Z,89.30
2023-01-11T18:17:07.691Z,89.30
2023-01-11T18:19:47.068Z,89.20
2023-01-11T18:23:12.548Z,89.20
2023-01-11T18:25:49.407Z,89.20
2023-01-11T18:40:59.569Z,88.80
2023-01-11T18:55:43.508Z,88.60
2023-01-11T19:13:32.260Z,88.40
2023-01-11T19:16:01.739Z,88.30
2023-01-11T19:18:42.310Z,88.30
2023-01-11T19:21:19.298Z,88.30
2023-01-11T19:23:53.749Z,88.30
2023-01-11T19:37:55.795Z,88.00
2023-01-11T19:46:31.695Z,88.00
2023-01-11T19:56:05.564Z,87.90
2023-01-11T20:04:21.474Z,87.80
2023-01-11T20:06:53.257Z,87.80
2023-01-11T20:10:21.357Z,87.80
2023-01-11T20:13:20.592Z,87.80
2023-01-11T20:20:07.821Z,87.70
2023-01-11T20:26:31.111Z,87.70
2023-01-11T20:30:02.574Z,87.70
2023-01-11T20:32:40.988Z,87.70
2023-01-11T20:35:38.542Z,87.70
2023-01-11T20:41:56.873Z,87.70
2023-01-11T20:53:14.088Z,87.80
2023-01-11T20:55:50.196Z,87.70
2023-01-11T21:01:38.480Z,87.80
2023-01-11T21:10:59.970Z,87.90
2023-01-11T21:14:01.766Z,87.90
2023-01-11T21:16:31.574Z,88.00
2023-01-11T21:19:09.734Z,88.00
2023-01-11T21:21:51.445Z,88.10
2023-01-11T21:25:23.441Z,88.20
2023-01-11T21:28:06.051Z,88.20
2023-01-11T21:30:38.811Z,88.10
2023-01-11T21:34:07.357Z,88.20
2023-01-11T21:36:37.675Z,88.20
2023-01-11T21:39:05.380Z,88.10
2023-01-11T21:41:54.666Z,88.00
2023-01-11T21:44:37.807Z,88.00
2023-01-11T21:47:08.303Z,88.10
2023-01-11T21:49:45.095Z,88.00
2023-01-11T21:52:37.283Z,88.10
2023-01-11T21:58:49.810Z,88.10
2023-01-11T22:05:29.147Z,88.10
2023-01-11T22:09:01.378Z,88.10
2023-01-11T22:11:51.220Z,88.10
2023-01-11T22:14:38.247Z,88.00
2023-01-11T22:21:00.914Z,88.00
2023-01-11T22:24:41.366Z,88.00
2023-01-11T22:27:08.688Z,88.00
2023-01-11T22:29:45.955Z,88.00
2023-01-11T22:37:03.157Z,88.00
2023-01-11T22:46:58.042Z,87.90
2023-01-11T22:53:44.650Z,87.90
2023-01-11T22:56:54.416Z,87.90
2023-01-11T23:02:59.819Z,87.90
2023-01-11T23:12:46.141Z,87.80
2023-01-11T23:15:27.081Z,87.80
2023-01-11T23:18:03.851Z,87.80
2023-01-11T23:21:20.455Z,87.70
2023-01-11T23:24:24.608Z,87.70
2023-01-11T23:31:52.671Z,87.60
2023-01-11T23:35:18.329Z,87.50
2023-01-11T23:44:26.966Z,87.50
2023-01-11T23:48:00.168Z,87.40
2023-01-11T23:50:37.376Z,87.50
2023-01-11T23:55:46.990Z,87.60
2023-01-11T23:58:43.798Z,87.70
